createdAt,value
2022-08-30T00:00:38.554Z,3.75
2022-08-30T00:04:03.192Z,3.93
2022-08-30T00:07:11.957Z,3.40
2022-08-30T00:10:19.304Z,3.40
2022-08-30T00:13:25.583Z,3.70
2022-08-30T00:16:28.945Z,3.00
2022-08-30T00:19:33.514Z,3.60
2022-08-30T00:22:58.025Z,3.35
2022-08-30T00:26:02.662Z,3.37
2022-08-30T00:29:10.694Z,3.15
2022-08-30T00:32:16.810Z,3.80
2022-08-30T00:35:21.296Z,3.58
2022-08-30T00:38:26.109Z,3.17
2022-08-30T00:41:30.569Z,3.47
2022-08-30T00:44:36.747Z,3.47
2022-08-30T00:47:41.251Z,3.35
2022-08-30T00:50:53.295Z,3.55
2022-08-30T00:53:59.728Z,3.22
2022-08-30T00:57:04.505Z,3.45
2022-08-30T01:00:41.033Z,3.40
2022-08-30T01:04:06.568Z,3.30
2022-08-30T01:07:12.364Z,3.55
2022-08-30T01:10:18.180Z,4.18
2022-08-30T01:13:23.647Z,3.62
2022-08-30T01:16:30.714Z,3.10
2022-08-30T01:19:58.245Z,4.00
2022-08-30T01:23:07.167Z,3.10
2022-08-30T01:26:15.935Z,4.00
2022-08-30T01:29:25.844Z,3.40
2022-08-30T01:32:45.432Z,3.30
2022-08-30T01:35:55.144Z,3.70
2022-08-30T01:38:58.959Z,4.12
2022-08-30T01:42:15.478Z,3.95
2022-08-30T01:45:18.744Z,3.72
2022-08-30T01:48:23.182Z,3.67
2022-08-30T01:51:35.397Z,3.65
2022-08-30T01:54:58.397Z,3.97
2022-08-30T01:58:08.048Z,3.55
2022-08-30T02:01:26.001Z,3.40
2022-08-30T02:04:44.308Z,3.50
2022-08-30T02:07:49.439Z,3.30
2022-08-30T02:10:52.312Z,4.47
2022-08-30T02:14:02.823Z,3.28
2022-08-30T02:17:17.151Z,4.00
2022-08-30T02:20:22.262Z,3.80
2022-08-30T02:23:27.388Z,3.83
2022-08-30T02:26:36.719Z,4.05
2022-08-30T02:29:40.277Z,3.70
2022-08-30T02:32:44.465Z,3.50
2022-08-30T02:35:51.646Z,3.72
2022-08-30T02:39:14.540Z,3.70
2022-08-30T02:42:21.424Z,3.72
2022-08-30T02:45:40.754Z,3.62
2022-08-30T02:48:46.168Z,3.70
2022-08-30T02:51:55.056Z,3.12
2022-08-30T02:55:20.102Z,3.22
2022-08-30T02:58:26.045Z,3.08
2022-08-30T03:01:29.538Z,3.47
2022-08-30T03:04:35.928Z,2.97
2022-08-30T03:07:49.596Z,3.10
2022-08-30T03:10:52.589Z,3.20
2022-08-30T03:13:57.006Z,3.00
2022-08-30T03:17:07.174Z,3.12
2022-08-30T03:20:20.320Z,3.58
2022-08-30T03:23:26.063Z,3.40
2022-08-30T03:26:45.592Z,3.20
2022-08-30T03:30:23.106Z,3.58
2022-08-30T03:33:28.326Z,3.78
2022-08-30T03:36:43.595Z,3.50
2022-08-30T03:39:51.942Z,3.67
2022-08-30T03:42:55.183Z,3.70
2022-08-30T03:46:22.793Z,3.70
2022-08-30T03:49:48.190Z,3.30
2022-08-30T03:53:16.541Z,3.65
2022-08-30T03:56:24.098Z,3.37
2022-08-30T03:59:57.435Z,3.92
2022-08-30T04:03:14.313Z,3.40
2022-08-30T04:06:40.670Z,3.43
2022-08-30T04:10:10.616Z,3.60
2022-08-30T04:13:26.437Z,3.30
2022-08-30T04:16:33.519Z,3.58
2022-08-30T04:19:52.683Z,3.50
2022-08-30T04:23:03.385Z,3.50
2022-08-30T04:26:20.824Z,3.92
2022-08-30T04:29:24.975Z,4.10
2022-08-30T04:32:42.783Z,4.15
2022-08-30T04:36:09.927Z,4.35
2022-08-30T04:39:29.992Z,4.32
2022-08-30T04:42:56.467Z,4.43
2022-08-30T04:46:19.426Z,4.25
2022-08-30T04:49:38.928Z,4.22
2022-08-30T04:52:53.328Z,3.83
2022-08-30T04:56:24.616Z,3.50
2022-08-30T04:59:36.482Z,3.55
2022-08-30T05:02:54.352Z,3.83
2022-08-30T05:06:12.825Z,4.10
2022-08-30T05:09:42.761Z,3.55
2022-08-30T05:13:14.214Z,4.32
2022-08-30T05:16:46.699Z,4.00
2022-08-30T05:20:11.875Z,4.22
2022-08-30T05:23:33.056Z,3.33
2022-08-30T05:27:09.030Z,3.83
2022-08-30T05:37:28.069Z,2.83
2022-08-30T05:40:54.387Z,3.47
2022-08-30T05:44:25.835Z,3.63
2022-08-30T05:47:59.899Z,3.33
2022-08-30T05:51:29.866Z,3.20
2022-08-30T05:54:54.087Z,3.42
2022-08-30T05:58:01.105Z,3.30
2022-08-30T06:01:26.888Z,3.35
2022-08-30T06:08:12.858Z,3.40
2022-08-30T06:11:27.200Z,3.37
2022-08-30T06:14:57.404Z,3.00
2022-08-30T06:18:28.780Z,3.55
2022-08-30T06:22:15.458Z,3.08
2022-08-30T06:25:45.611Z,3.22
2022-08-30T06:28:59.156Z,2.75
2022-08-30T06:32:23.153Z,3.15
2022-08-30T06:35:58.728Z,2.97
2022-08-30T06:39:12.912Z,3.28
2022-08-30T06:42:39.289Z,2.75
2022-08-30T06:45:59.749Z,3.00
2022-08-30T06:49:42.484Z,2.83
2022-08-30T06:52:51.017Z,2.83
2022-08-30T06:56:22.161Z,2.58
2022-08-30T07:00:03.147Z,3.28
2022-08-30T07:03:40.050Z,2.95
2022-08-30T07:07:04.128Z,2.90
2022-08-30T07:10:20.190Z,2.78
2022-08-30T07:13:31.002Z,3.15
2022-08-30T07:16:43.696Z,2.92
2022-08-30T07:20:22.189Z,2.55
2022-08-30T07:27:40.481Z,3.00
2022-08-30T07:30:58.833Z,2.83
2022-08-30T07:34:20.588Z,2.75
2022-08-30T07:37:45.041Z,2.80
2022-08-30T07:40:54.695Z,2.87
2022-08-30T07:44:16.807Z,2.90
2022-08-30T07:47:45.404Z,3.00
2022-08-30T07:50:52.632Z,3.05
2022-08-30T07:54:23.388Z,2.50
2022-08-30T07:57:44.588Z,2.90
2022-08-30T08:00:51.720Z,2.33
2022-08-30T08:03:54.565Z,2.50
2022-08-30T08:06:57.459Z,2.70
2022-08-30T08:10:01.008Z,2.33
2022-08-30T08:13:06.926Z,2.33
2022-08-30T08:16:12.630Z,2.37
2022-08-30T08:19:15.793Z,2.08
2022-08-30T08:22:46.712Z,2.30
2022-08-30T08:25:49.566Z,2.22
2022-08-30T08:29:13.740Z,2.30
2022-08-30T08:32:17.186Z,2.30
2022-08-30T08:35:21.019Z,2.40
2022-08-30T08:38:25.064Z,2.50
2022-08-30T08:41:37.228Z,2.40
2022-08-30T08:44:54.795Z,2.40
2022-08-30T08:48:58.487Z,2.05
2022-08-30T08:52:20.754Z,2.40
2022-08-30T08:59:01.737Z,2.10
2022-08-30T09:02:26.644Z,2.28
2022-08-30T09:05:38.345Z,2.20
2022-08-30T09:08:41.466Z,2.10
2022-08-30T09:11:48.376Z,2.00
2022-08-30T09:15:03.845Z,2.30
2022-08-30T09:18:54.716Z,2.10
2022-08-30T09:22:12.795Z,2.03
2022-08-30T09:25:28.983Z,2.20
2022-08-30T09:28:44.393Z,1.90
2022-08-30T09:32:01.354Z,2.30
2022-08-30T09:35:22.095Z,2.28
2022-08-30T09:38:35.997Z,2.10
2022-08-30T09:41:46.366Z,2.20
2022-08-30T09:45:10.645Z,2.10
2022-08-30T09:48:30.169Z,2.10
2022-08-30T09:51:40.797Z,2.10
2022-08-30T09:55:41.412Z,2.05
2022-08-30T09:59:07.412Z,2.08
2022-08-30T10:07:28.917Z,2.08
2022-08-30T10:10:52.399Z,1.65
2022-08-30T10:14:38.941Z,2.00
2022-08-30T10:18:32.212Z,1.90
2022-08-30T10:25:58.394Z,1.95
2022-08-30T10:29:31.405Z,2.05
2022-08-30T10:32:54.652Z,2.08
2022-08-30T10:36:14.462Z,1.73
2022-08-30T10:39:48.810Z,2.10
2022-08-30T10:43:31.879Z,2.20
2022-08-30T10:46:54.156Z,2.28
2022-08-30T10:50:30.823Z,2.22
2022-08-30T10:57:46.855Z,2.22
2022-08-30T11:02:02.025Z,2.40
2022-08-30T11:06:08.040Z,2.37
2022-08-30T11:13:13.271Z,2.15
2022-08-30T11:16:46.193Z,2.25
2022-08-30T11:31:41.701Z,2.50
2022-08-30T11:35:21.711Z,2.15
2022-08-30T11:42:33.593Z,2.40
2022-08-30T11:46:17.776Z,2.42
2022-08-30T11:50:14.899Z,2.60
2022-08-30T11:54:12.134Z,2.12
2022-08-30T11:57:48.033Z,2.30
2022-08-30T12:01:49.732Z,2.62
2022-08-30T12:05:11.191Z,2.47
2022-08-30T12:08:27.881Z,2.60
2022-08-30T12:11:44.656Z,2.53
2022-08-30T12:15:02.776Z,2.50
2022-08-30T12:18:29.464Z,2.55
2022-08-30T12:22:07.573Z,2.22
2022-08-30T12:29:22.547Z,2.70
2022-08-30T12:32:50.836Z,2.50
2022-08-30T12:36:39.722Z,2.53
2022-08-30T12:40:10.219Z,2.58
2022-08-30T12:51:05.070Z,2.50
2022-08-30T12:54:19.305Z,2.55
2022-08-30T12:57:46.105Z,2.62
2022-08-30T13:01:28.330Z,2.87
2022-08-30T13:04:35.702Z,2.70
2022-08-30T13:07:39.395Z,2.60
2022-08-30T13:22:09.600Z,2.83
2022-08-30T13:25:36.616Z,2.90
2022-08-30T13:28:45.688Z,2.45
2022-08-30T13:31:53.134Z,2.78
2022-08-30T13:35:00.453Z,2.42
2022-08-30T13:38:04.606Z,3.00
2022-08-30T13:41:08.179Z,2.87
2022-08-30T13:48:00.746Z,2.50
2022-08-30T13:51:35.597Z,2.97
2022-08-30T13:54:41.887Z,2.60
2022-08-30T14:05:02.640Z,2.50
2022-08-30T14:08:44.345Z,2.80
2022-08-30T14:11:27.800Z,2.78
2022-08-30T14:14:42.808Z,2.80
2022-08-30T14:17:47.612Z,2.72
2022-08-30T14:21:03.119Z,2.67
2022-08-30T14:24:08.415Z,2.57
2022-08-30T14:27:12.292Z,2.25
2022-08-30T14:30:21.189Z,2.47
2022-08-30T14:36:30.336Z,2.62
2022-08-30T14:39:38.092Z,2.50
2022-08-30T14:42:42.709Z,2.50
2022-08-30T14:45:52.838Z,2.62
2022-08-30T14:48:56.305Z,2.45
2022-08-30T14:52:16.697Z,2.45
2022-08-30T14:55:23.691Z,2.45
2022-08-30T14:58:27.108Z,2.40
2022-08-30T15:01:31.887Z,2.62
2022-08-30T15:04:56.367Z,2.80
2022-08-30T15:08:03.906Z,2.35
2022-08-30T15:11:15.408Z,2.45
2022-08-30T15:14:20.277Z,2.58
2022-08-30T15:17:23.689Z,2.40
2022-08-30T15:20:48.549Z,2.60
2022-08-30T15:24:06.807Z,2.58
2022-08-30T15:27:11.123Z,2.28
2022-08-30T15:30:16.328Z,2.70
2022-08-30T15:33:38.801Z,2.53
2022-08-30T15:36:46.195Z,2.50
2022-08-30T15:40:07.716Z,2.20
2022-08-30T15:43:35.138Z,2.87
2022-08-30T15:46:49.351Z,2.40
2022-08-30T15:50:03.022Z,2.60
2022-08-30T15:53:07.641Z,2.42
2022-08-30T15:56:13.357Z,2.00
2022-08-30T15:59:17.638Z,2.58
2022-08-30T16:02:27.685Z,2.58
2022-08-30T16:05:51.254Z,2.67
2022-08-30T16:08:59.433Z,2.95
2022-08-30T16:12:12.342Z,2.72
2022-08-30T16:15:40.142Z,2.75
2022-08-30T16:19:02.841Z,2.90
2022-08-30T16:22:08.777Z,2.62
2022-08-30T16:25:40.653Z,2.58
2022-08-30T16:29:09.189Z,2.70
2022-08-30T16:32:33.540Z,2.72
2022-08-30T16:35:53.191Z,2.65
2022-08-30T16:39:01.155Z,2.53
2022-08-30T16:42:06.698Z,2.58
2022-08-30T16:45:12.716Z,3.03
2022-08-30T16:48:18.633Z,2.70
2022-08-30T16:51:23.883Z,2.47
2022-08-30T16:54:33.649Z,2.53
2022-08-30T16:57:36.666Z,2.50
2022-08-30T17:00:49.520Z,2.70
2022-08-30T17:03:54.877Z,2.65
2022-08-30T17:07:29.936Z,2.28
2022-08-30T17:10:50.675Z,2.15
2022-08-30T17:17:43.131Z,2.58
2022-08-30T17:54:53.748Z,1.90
2022-08-30T17:58:01.074Z,1.90
2022-08-30T18:01:48.006Z,2.10
2022-08-30T18:05:25.382Z,2.10
2022-08-30T18:12:30.220Z,1.77
2022-08-30T18:53:50.190Z,2.70
2022-08-30T19:24:06.226Z,2.30
2022-08-30T19:27:16.180Z,2.10
2022-08-30T21:18:26.259Z,2.53
2022-08-30T21:21:34.251Z,2.00
2022-08-30T21:28:34.904Z,2.37
2022-08-30T21:32:14.651Z,2.40
2022-08-30T21:35:56.130Z,2.40
2022-08-30T21:39:19.299Z,3.10
2022-08-30T21:49:37.575Z,2.40
2022-08-30T22:00:21.545Z,2.72
2022-08-30T22:03:52.413Z,2.42
2022-08-30T22:06:56.897Z,2.80
2022-08-30T22:10:00.431Z,2.60
2022-08-30T22:13:03.888Z,2.42
2022-08-30T22:16:07.556Z,2.75
2022-08-30T22:19:13.819Z,2.40
2022-08-30T22:22:17.616Z,2.50
2022-08-30T22:25:34.832Z,2.42
2022-08-30T22:28:55.494Z,2.10
2022-08-30T22:32:18.354Z,2.62
2022-08-30T22:35:24.052Z,2.55
2022-08-30T22:38:28.033Z,1.98
2022-08-30T22:41:37.031Z,2.47
2022-08-30T22:44:39.888Z,1.95
2022-08-30T22:47:43.493Z,2.10
2022-08-30T22:50:51.403Z,2.60
2022-08-30T22:53:54.165Z,2.58
2022-08-30T22:56:57.328Z,2.20
2022-08-30T23:00:03.461Z,2.70
2022-08-30T23:03:06.985Z,2.65
2022-08-30T23:06:14.602Z,2.47
2022-08-30T23:09:20.849Z,2.20
2022-08-30T23:12:24.164Z,2.75
2022-08-30T23:15:29.348Z,2.62
2022-08-30T23:18:33.258Z,2.53
2022-08-30T23:21:36.061Z,2.40
2022-08-30T23:24:57.368Z,2.72
2022-08-30T23:28:20.665Z,2.60
2022-08-30T23:31:43.659Z,2.50
2022-08-30T23:35:05.647Z,2.58
2022-08-30T23:38:29.512Z,2.92
2022-08-30T23:41:52.388Z,2.85
2022-08-30T23:45:18.521Z,3.00
2022-08-30T23:48:41.491Z,2.80
2022-08-30T23:52:14.883Z,2.53
2022-08-30T23:55:38.639Z,2.75
2022-08-30T23:59:00.892Z,3.10
